createdAt,value
2023-05-06T00:01:19.661Z,11.50
2023-05-06T00:04:08.233Z,11.40
2023-05-06T00:06:57.443Z,11.40
2023-05-06T00:09:45.992Z,11.40
2023-05-06T00:12:34.586Z,11.40
2023-05-06T00:15:23.374Z,11.40
2023-05-06T00:18:15.205Z,11.30
2023-05-06T00:21:03.781Z,11.20
2023-05-06T00:23:52.379Z,11.20
2023-05-06T00:26:40.959Z,11.20
2023-05-06T00:29:29.497Z,11.10
2023-05-06T00:32:17.996Z,11.20
2023-05-06T00:35:09.364Z,11.10
2023-05-06T00:37:59.237Z,11.10
2023-05-06T00:40:47.777Z,11.10
2023-05-06T00:43:36.299Z,11.10
2023-05-06T00:46:25.000Z,11.10
2023-05-06T00:49:13.829Z,11.10
2023-05-06T00:52:04.685Z,11.00
2023-05-06T00:54:53.230Z,11.00
2023-05-06T00:57:41.987Z,11.00
2023-05-06T01:00:30.727Z,10.90
2023-05-06T01:03:19.805Z,10.90
2023-05-06T01:06:20.628Z,10.80
2023-05-06T01:09:20.699Z,10.80
2023-05-06T01:12:13.823Z,10.70
2023-05-06T01:15:08.762Z,10.60
2023-05-06T01:18:02.186Z,10.60
2023-05-06T01:20:53.665Z,10.60
2023-05-06T01:23:58.226Z,10.60
2023-05-06T01:26:47.031Z,10.60
2023-05-06T01:29:37.965Z,10.50
2023-05-06T01:32:37.852Z,10.50
2023-05-06T01:35:34.003Z,10.50
2023-05-06T01:38:32.401Z,10.50
2023-05-06T01:41:24.135Z,10.40
2023-05-06T01:44:13.056Z,10.40
2023-05-06T01:47:02.656Z,10.40
2023-05-06T01:49:51.558Z,10.40
2023-05-06T01:52:40.294Z,10.30
2023-05-06T01:55:29.102Z,10.40
2023-05-06T01:58:19.081Z,10.40
2023-05-06T02:01:07.672Z,10.40
2023-05-06T02:03:56.337Z,10.50
2023-05-06T02:06:44.932Z,10.40
2023-05-06T02:09:33.425Z,10.40
2023-05-06T02:12:21.961Z,10.40
2023-05-06T02:15:12.782Z,10.30
2023-05-06T02:18:01.687Z,10.30
2023-05-06T02:20:50.511Z,10.30
2023-05-06T02:23:39.075Z,10.30
2023-05-06T02:26:27.777Z,10.20
2023-05-06T02:29:16.392Z,10.30
2023-05-06T02:32:07.050Z,10.30
2023-05-06T02:34:55.611Z,10.30
2023-05-06T02:37:44.160Z,10.30
2023-05-06T02:40:32.642Z,10.40
2023-05-06T02:43:23.174Z,10.40
2023-05-06T02:46:11.797Z,10.40
2023-05-06T02:49:01.871Z,10.30
2023-05-06T02:51:50.429Z,10.30
2023-05-06T02:54:38.959Z,10.30
2023-05-06T02:57:27.549Z,10.30
2023-05-06T03:00:16.570Z,10.30
2023-05-06T03:03:05.339Z,10.30
2023-05-06T03:05:55.391Z,10.30
2023-05-06T03:08:43.958Z,10.30
2023-05-06T03:11:32.673Z,10.20
2023-05-06T03:14:21.419Z,10.30
2023-05-06T03:17:09.969Z,10.30
2023-05-06T03:19:58.520Z,10.30
2023-05-06T03:22:48.481Z,10.30
2023-05-06T03:25:37.074Z,10.30
2023-05-06T03:28:25.672Z,10.30
2023-05-06T03:31:14.640Z,10.30
2023-05-06T03:34:03.287Z,10.20
2023-05-06T03:36:51.879Z,10.10
2023-05-06T03:39:41.854Z,10.10
2023-05-06T03:42:30.339Z,10.00
2023-05-06T03:45:19.037Z,10.00
2023-05-06T03:48:07.692Z,10.00
2023-05-06T03:50:56.498Z,10.00
2023-05-06T03:53:45.143Z,10.00
2023-05-06T03:56:36.220Z,10.00
2023-05-06T03:59:24.752Z,10.00
2023-05-06T04:02:13.287Z,10.00
2023-05-06T04:05:02.147Z,10.00
2023-05-06T04:07:50.911Z,9.90
2023-05-06T04:10:41.145Z,9.90
2023-05-06T04:13:31.085Z,9.90
2023-05-06T04:16:19.775Z,9.90
2023-05-06T04:19:08.395Z,9.90
2023-05-06T04:21:57.029Z,9.90
2023-05-06T04:24:45.726Z,9.90
2023-05-06T04:27:34.328Z,9.90
2023-05-06T04:30:24.468Z,9.90
2023-05-06T04:33:13.540Z,10.00
2023-05-06T04:36:03.544Z,9.90
2023-05-06T04:38:52.844Z,9.90
2023-05-06T04:41:41.940Z,10.00
2023-05-06T04:44:31.058Z,10.00
2023-05-06T04:47:20.950Z,10.00
2023-05-06T04:50:10.253Z,10.10
2023-05-06T04:52:58.794Z,10.20
2023-05-06T04:55:47.340Z,10.20
2023-05-06T04:58:36.094Z,10.30
2023-05-06T05:01:25.089Z,10.40
2023-05-06T05:04:15.105Z,10.40
2023-05-06T05:07:03.692Z,10.50
2023-05-06T05:09:52.249Z,10.50
2023-05-06T05:12:40.867Z,10.60
2023-05-06T05:15:29.533Z,10.60
2023-05-06T05:18:18.125Z,10.70
2023-05-06T05:21:08.079Z,10.90
2023-05-06T05:23:56.610Z,11.00
2023-05-06T05:26:45.174Z,11.20
2023-05-06T05:29:33.811Z,11.30
2023-05-06T05:32:22.477Z,11.50
2023-05-06T05:35:11.645Z,11.80
2023-05-06T05:38:01.933Z,12.10
2023-05-06T05:40:50.607Z,12.40
2023-05-06T05:43:39.294Z,12.80
2023-05-06T05:46:27.860Z,13.20
2023-05-06T05:49:16.360Z,13.70
2023-05-06T05:52:05.220Z,14.30
2023-05-06T05:54:55.152Z,14.90
2023-05-06T05:57:43.665Z,15.40
2023-05-06T06:00:32.378Z,15.50
2023-05-06T06:03:21.221Z,15.50
2023-05-06T06:06:10.538Z,15.40
2023-05-06T06:09:00.129Z,15.30
2023-05-06T06:11:50.221Z,15.20
2023-05-06T06:14:38.898Z,15.30
2023-05-06T06:17:27.723Z,15.30
2023-05-06T06:20:16.370Z,15.30
2023-05-06T06:23:04.973Z,15.40
2023-05-06T06:25:53.547Z,15.80
2023-05-06T06:28:44.780Z,16.10
2023-05-06T06:31:34.863Z,16.70
2023-05-06T06:34:23.584Z,17.40
2023-05-06T06:37:13.569Z,17.80
2023-05-06T06:40:02.130Z,18.00
2023-05-06T06:42:51.310Z,18.00
2023-05-06T06:45:41.459Z,17.60
2023-05-06T06:48:29.987Z,17.20
2023-05-06T06:51:18.533Z,16.70
2023-05-06T06:54:07.168Z,16.50
2023-05-06T06:56:57.468Z,16.30
2023-05-06T06:59:47.737Z,16.20
2023-05-06T07:02:37.721Z,16.10
2023-05-06T07:05:26.980Z,16.00
2023-05-06T07:08:17.267Z,16.00
2023-05-06T07:11:06.359Z,16.00
2023-05-06T07:13:59.898Z,15.90
2023-05-06T09:37:06.018Z,19.70
2023-05-06T09:39:56.117Z,19.90
2023-05-06T09:42:45.412Z,20.30
2023-05-06T09:45:34.357Z,21.10
2023-05-06T09:48:24.006Z,21.70
2023-05-06T09:51:12.784Z,22.10
2023-05-06T12:14:17.438Z,21.10
2023-05-06T12:17:06.900Z,21.30
2023-05-06T12:19:56.235Z,21.50
2023-05-06T12:22:44.839Z,21.60
2023-05-06T12:25:33.586Z,21.70
2023-05-06T12:28:23.848Z,21.80
2023-05-06T12:31:26.160Z,21.80
2023-05-06T12:34:16.220Z,21.90
2023-05-06T12:37:04.852Z,22.20
2023-05-06T12:39:53.399Z,22.30
2023-05-06T12:42:42.116Z,22.30
2023-05-06T12:45:59.999Z,22.30
2023-05-06T13:06:52.495Z,22.20
2023-05-06T15:31:01.698Z,19.10
2023-05-06T15:33:50.299Z,19.00
2023-05-06T15:36:39.008Z,18.90
2023-05-06T15:39:27.537Z,18.90
2023-05-06T15:42:16.762Z,18.90
2023-05-06T15:45:06.078Z,18.90
2023-05-06T15:47:56.321Z,19.00
2023-05-06T15:50:45.004Z,19.10
2023-05-06T15:53:33.566Z,19.30
2023-05-06T15:56:24.135Z,19.20
2023-05-06T15:59:13.116Z,19.20
2023-05-06T16:02:26.193Z,19.10
2023-05-06T16:05:12.074Z,19.10
2023-05-06T16:08:00.676Z,18.90
2023-05-06T16:10:49.258Z,18.90
2023-05-06T16:13:37.844Z,18.80
2023-05-06T16:16:26.458Z,18.70
2023-05-06T16:19:15.065Z,18.70
2023-05-06T16:22:05.361Z,18.60
2023-05-06T16:24:53.911Z,18.40
2023-05-06T16:27:42.524Z,18.50
2023-05-06T16:30:31.077Z,18.40
2023-05-06T16:33:19.693Z,18.50
2023-05-06T16:36:08.602Z,18.40
2023-05-06T16:38:58.597Z,18.30
2023-05-06T16:41:47.738Z,18.00
2023-05-06T16:44:37.903Z,17.80
2023-05-06T16:47:26.952Z,17.60
2023-05-06T16:50:15.866Z,17.20
2023-05-06T16:53:04.609Z,16.80
2023-05-06T16:55:54.918Z,16.50
2023-05-06T16:58:43.648Z,16.40
2023-05-06T17:01:32.368Z,16.30
2023-05-06T17:04:21.020Z,16.10
2023-05-06T17:07:11.232Z,16.10
2023-05-06T17:09:59.807Z,16.00
2023-05-06T17:12:49.766Z,15.90
2023-05-06T17:15:38.353Z,15.90
2023-05-06T17:18:26.991Z,15.80
2023-05-06T17:21:17.039Z,15.80
2023-05-06T17:24:06.575Z,15.70
2023-05-06T17:26:55.101Z,15.70
2023-05-06T17:29:46.085Z,15.70
2023-05-06T17:32:34.647Z,15.70
2023-05-06T17:35:23.252Z,15.70
2023-05-06T17:38:13.653Z,15.70
2023-05-06T17:41:02.172Z,15.70
2023-05-06T17:43:51.138Z,15.70
2023-05-06T17:46:41.158Z,15.70
2023-05-06T17:49:29.762Z,15.60
2023-05-06T17:52:18.380Z,15.60
2023-05-06T17:57:59.904Z,15.60
2023-05-06T18:00:48.526Z,15.60
2023-05-06T18:03:40.009Z,15.60
2023-05-06T18:06:28.996Z,15.60
2023-05-06T18:09:17.644Z,15.50
2023-05-06T18:12:06.727Z,15.50
2023-05-06T18:14:56.803Z,15.50
2023-05-06T18:17:46.226Z,15.50
2023-05-06T18:20:36.286Z,15.50
2023-05-06T18:23:24.895Z,15.40
2023-05-06T18:26:15.438Z,15.40
2023-05-06T18:29:06.992Z,15.40
2023-05-06T18:31:55.664Z,15.40
2023-05-06T18:34:44.300Z,15.40
2023-05-06T18:37:34.288Z,15.40
2023-05-06T18:40:23.368Z,15.40
2023-05-06T18:43:11.931Z,15.40
2023-05-06T18:46:00.661Z,15.30
2023-05-06T18:48:49.324Z,15.40
2023-05-06T18:51:39.092Z,15.30
2023-05-06T18:54:29.298Z,15.30
2023-05-06T18:57:19.603Z,15.30
2023-05-06T19:00:09.477Z,15.30
2023-05-06T19:02:58.067Z,15.20
2023-05-06T19:05:46.643Z,15.20
2023-05-06T19:08:35.417Z,15.20
2023-05-06T19:11:25.393Z,15.10
2023-05-06T19:14:14.359Z,15.10
2023-05-06T19:17:03.339Z,15.10
2023-05-06T19:19:51.915Z,15.10
2023-05-06T19:22:40.474Z,15.10
2023-05-06T19:25:29.071Z,15.10
2023-05-06T19:28:19.050Z,15.00
2023-05-06T19:31:09.451Z,15.00
2023-05-06T19:33:58.172Z,15.00
2023-05-06T19:36:46.751Z,15.00
2023-05-06T19:39:35.357Z,15.00
2023-05-06T19:42:23.913Z,14.90
2023-05-06T19:45:16.446Z,14.90
2023-05-06T19:48:08.586Z,14.90
2023-05-06T19:50:57.242Z,14.80
2023-05-06T19:53:45.820Z,14.80
2023-05-06T19:56:34.398Z,14.80
2023-05-06T19:59:23.112Z,14.70
2023-05-06T20:02:16.558Z,14.70
2023-05-06T20:05:06.200Z,14.60
2023-05-06T20:07:55.520Z,14.60
2023-05-06T20:10:44.065Z,14.60
2023-05-06T20:13:32.703Z,14.60
2023-05-06T20:16:21.317Z,14.50
2023-05-06T20:19:11.417Z,14.60
2023-05-06T20:22:00.769Z,14.50
2023-05-06T20:24:49.295Z,14.50
2023-05-06T20:27:37.999Z,14.40
2023-05-06T20:30:26.810Z,14.40
2023-05-06T20:33:15.835Z,14.40
2023-05-06T20:36:06.775Z,14.40
2023-05-06T20:38:55.335Z,14.40
2023-05-06T20:41:43.885Z,14.40
2023-05-06T20:44:32.405Z,14.40
2023-05-06T20:47:21.123Z,14.40
2023-05-06T20:50:16.467Z,14.40
2023-05-06T20:53:07.025Z,14.40
2023-05-06T20:55:55.886Z,14.30
2023-05-06T20:58:44.473Z,14.40
2023-05-06T21:01:33.869Z,14.40
2023-05-06T21:04:22.519Z,14.40
2023-05-06T21:07:11.369Z,14.40
2023-05-06T21:10:03.366Z,14.40
2023-05-06T21:12:52.396Z,14.50
2023-05-06T21:15:41.248Z,14.40
2023-05-06T21:18:30.182Z,14.40
2023-05-06T21:21:19.131Z,14.40
2023-05-06T21:24:07.933Z,14.40
2023-05-06T21:26:57.918Z,14.40
2023-05-06T21:29:46.681Z,14.40
2023-05-06T21:32:35.434Z,14.40
2023-05-06T21:35:25.041Z,14.40
2023-05-06T21:38:13.667Z,14.30
2023-05-06T21:41:02.189Z,14.30
2023-05-06T21:43:52.208Z,14.30
2023-05-06T21:46:41.101Z,14.30
2023-05-06T21:49:29.768Z,14.30
2023-05-06T21:52:18.364Z,14.20
2023-05-06T21:55:08.160Z,14.20
2023-05-06T21:57:56.960Z,14.20
2023-05-06T22:00:47.014Z,14.30
2023-05-06T22:03:35.803Z,14.20
2023-05-06T22:06:24.490Z,14.20
2023-05-06T22:09:13.158Z,14.20
2023-05-06T22:12:04.741Z,14.20
2023-05-06T22:14:53.279Z,14.20
2023-05-06T22:17:43.337Z,14.10
2023-05-06T22:20:32.503Z,14.20
2023-05-06T22:23:23.103Z,14.20
2023-05-06T22:26:11.725Z,14.10
2023-05-06T22:29:00.694Z,14.10
2023-05-06T22:31:49.309Z,14.10
2023-05-06T22:34:39.316Z,14.20
2023-05-06T22:37:27.975Z,14.10
2023-05-06T22:40:16.642Z,14.10
2023-05-06T22:43:05.203Z,14.10
2023-05-06T22:45:53.814Z,14.00
2023-05-06T22:48:44.788Z,14.00
2023-05-06T22:51:35.111Z,14.00
2023-05-06T22:54:24.009Z,14.00
2023-05-06T22:57:12.648Z,14.00
2023-05-06T23:00:01.292Z,14.00
2023-05-06T23:02:49.963Z,14.00
2023-05-06T23:05:38.535Z,13.90
2023-05-06T23:08:28.585Z,14.00
2023-05-06T23:11:17.136Z,13.90
2023-05-06T23:14:06.790Z,13.90
2023-05-06T23:16:55.923Z,14.00
2023-05-06T23:19:45.908Z,13.90
2023-05-06T23:22:34.592Z,13.90
2023-05-06T23:25:24.614Z,13.90
2023-05-06T23:28:13.321Z,13.90
2023-05-06T23:31:01.950Z,13.80
2023-05-06T23:33:50.564Z,13.80
2023-05-06T23:36:39.163Z,13.90
2023-05-06T23:39:27.716Z,13.90
2023-05-06T23:42:17.722Z,13.90
2023-05-06T23:45:07.838Z,13.90
2023-05-06T23:47:57.042Z,13.90
2023-05-06T23:50:45.667Z,13.80
2023-05-06T23:53:36.169Z,13.80
2023-05-06T23:56:24.750Z,13.90
2023-05-06T23:59:14.834Z,13.90
